createdAt,value
2022-12-15T00:00:27.021Z,-2.40
2022-12-15T00:05:50.118Z,-2.50
2022-12-15T00:11:10.477Z,-2.60
2022-12-15T00:16:31.064Z,-2.70
2022-12-15T00:21:51.243Z,-2.70
2022-12-15T00:27:11.850Z,-2.70
2022-12-15T00:32:32.099Z,-2.60
2022-12-15T00:37:52.621Z,-2.50
2022-12-15T00:42:54.354Z,-2.50
2022-12-15T00:47:56.087Z,-2.40
2022-12-15T00:53:16.553Z,-2.40
2022-12-15T00:58:37.152Z,-2.40
2022-12-15T01:03:57.624Z,-2.40
2022-12-15T01:09:18.549Z,-2.40
2022-12-15T01:14:39.752Z,-2.40
2022-12-15T01:19:59.945Z,-2.50
2022-12-15T01:25:01.695Z,-2.40
2022-12-15T01:30:05.351Z,-2.40
2022-12-15T01:35:08.286Z,-2.30
2022-12-15T01:40:33.701Z,-2.30
2022-12-15T01:45:58.497Z,-2.20
2022-12-15T01:51:05.450Z,-2.20
2022-12-15T01:56:09.723Z,-2.20
2022-12-15T02:01:12.851Z,-2.20
2022-12-15T02:06:15.865Z,-2.20
2022-12-15T02:11:35.918Z,-2.30
2022-12-15T02:17:12.757Z,-2.40
2022-12-15T02:22:52.711Z,-2.30
2022-12-15T02:28:02.037Z,-2.20
2022-12-15T02:33:24.196Z,-2.30
2022-12-15T02:38:34.621Z,-2.30
2022-12-15T02:43:38.856Z,-2.30
2022-12-15T02:49:10.826Z,-2.30
2022-12-15T02:54:31.866Z,-2.30
2022-12-15T02:59:39.917Z,-2.30
2022-12-15T03:04:43.231Z,-2.20
2022-12-15T03:09:45.003Z,-2.30
2022-12-15T03:14:46.765Z,-2.30
2022-12-15T03:19:49.602Z,-2.20
2022-12-15T03:24:51.683Z,-2.20
2022-12-15T03:29:53.411Z,-2.20
2022-12-15T03:34:55.216Z,-2.30
2022-12-15T03:39:56.969Z,-2.30
2022-12-15T03:44:58.705Z,-2.30
2022-12-15T03:50:00.482Z,-2.40
2022-12-15T03:55:03.276Z,-2.30
2022-12-15T04:00:06.634Z,-2.30
2022-12-15T04:05:30.982Z,-2.20
2022-12-15T04:10:35.361Z,-2.30
2022-12-15T04:15:39.311Z,-2.20
2022-12-15T04:20:41.417Z,-2.20
2022-12-15T04:26:01.846Z,-2.30
2022-12-15T04:31:26.813Z,-2.30
2022-12-15T04:36:48.793Z,-2.20
2022-12-15T04:42:11.120Z,-2.20
2022-12-15T04:47:31.605Z,-2.30
2022-12-15T04:52:51.732Z,-2.30
2022-12-15T04:58:12.111Z,-2.20
2022-12-15T05:03:32.718Z,-2.20
2022-12-15T05:08:53.350Z,-2.30
2022-12-15T05:14:13.744Z,-2.30
2022-12-15T05:19:34.151Z,-2.40
2022-12-15T05:24:54.726Z,-2.30
2022-12-15T05:30:14.975Z,-2.30
2022-12-15T05:35:16.703Z,-2.30
2022-12-15T05:40:18.467Z,-2.30
2022-12-15T05:45:20.214Z,-2.20
2022-12-15T05:50:23.402Z,-2.30
2022-12-15T05:55:25.175Z,-2.20
2022-12-15T06:00:27.010Z,-2.20
2022-12-15T06:05:29.124Z,-2.20
2022-12-15T06:10:31.002Z,-2.20
2022-12-15T06:15:32.745Z,-2.20
2022-12-15T06:20:34.512Z,-2.20
2022-12-15T06:25:36.288Z,-2.30
2022-12-15T06:30:38.651Z,-2.30
2022-12-15T06:35:40.412Z,-2.30
2022-12-15T06:40:42.415Z,-2.20
2022-12-15T06:45:49.804Z,-2.20
2022-12-15T06:50:52.414Z,-2.20
2022-12-15T06:56:01.011Z,-2.20
2022-12-15T07:01:08.008Z,-2.20
2022-12-15T07:06:11.974Z,-2.20
2022-12-15T07:11:13.768Z,-2.20
2022-12-15T07:16:15.775Z,-2.20
2022-12-15T07:21:17.786Z,-2.20
2022-12-15T07:26:19.547Z,-2.20
2022-12-15T07:31:22.620Z,-2.10
2022-12-15T07:36:24.585Z,-2.20
2022-12-15T07:41:26.758Z,-2.10
2022-12-15T07:46:29.193Z,-2.10
2022-12-15T07:51:31.107Z,-2.00
2022-12-15T07:56:38.870Z,-1.90
2022-12-15T08:01:41.006Z,-1.90
2022-12-15T08:06:42.829Z,-1.90
2022-12-15T08:11:44.573Z,-1.90
2022-12-15T08:16:46.530Z,-1.80
2022-12-15T08:21:48.560Z,-1.80
2022-12-15T08:26:50.767Z,-1.70
2022-12-15T08:31:52.962Z,-1.70
2022-12-15T08:36:55.593Z,-1.70
2022-12-15T08:41:57.304Z,-1.60
2022-12-15T08:46:59.060Z,-1.60
2022-12-15T08:52:01.081Z,-1.60
2022-12-15T08:57:02.907Z,-1.50
2022-12-15T09:02:04.698Z,-1.40
2022-12-15T09:07:06.646Z,-1.30
2022-12-15T09:12:12.007Z,-1.30
2022-12-15T09:17:13.799Z,-1.20
2022-12-15T09:22:15.597Z,-1.20
2022-12-15T09:27:17.378Z,-1.20
2022-12-15T09:32:19.967Z,-1.20
2022-12-15T09:37:21.832Z,-1.20
2022-12-15T09:42:27.077Z,-1.10
2022-12-15T09:47:54.042Z,-1.10
2022-12-15T09:53:00.630Z,-1.00
2022-12-15T09:58:30.306Z,-0.90
2022-12-15T10:03:46.071Z,-0.70
2022-12-15T10:09:00.317Z,-0.60
2022-12-15T10:14:23.546Z,-0.60
2022-12-15T10:19:40.198Z,-0.50
2022-12-15T10:25:09.134Z,-0.50
2022-12-15T10:30:10.758Z,-0.40
2022-12-15T10:35:23.278Z,-0.30
2022-12-15T10:40:50.265Z,-0.20
2022-12-15T10:46:18.937Z,-0.20
2022-12-15T10:51:30.791Z,-0.10
2022-12-15T10:56:34.294Z,0.00
2022-12-15T11:01:36.335Z,0.00
2022-12-15T11:06:42.029Z,0.10
2022-12-15T11:12:11.636Z,0.20
2022-12-15T11:17:22.513Z,0.20
2022-12-15T11:22:31.562Z,0.10
2022-12-15T11:27:38.810Z,0.10
2022-12-15T11:32:50.122Z,0.10
2022-12-15T11:38:02.597Z,0.10
2022-12-15T11:43:26.721Z,0.10
2022-12-15T11:48:34.864Z,0.10
2022-12-15T11:53:57.839Z,0.10
2022-12-15T11:59:27.284Z,0.20
2022-12-15T12:04:39.595Z,0.20
2022-12-15T12:09:46.964Z,0.30
2022-12-15T12:15:06.587Z,0.20
2022-12-15T12:20:36.051Z,0.30
2022-12-15T12:25:47.645Z,0.20
2022-12-15T12:30:50.799Z,0.30
2022-12-15T12:35:58.872Z,0.30
2022-12-15T12:41:06.034Z,0.20
2022-12-15T12:46:29.485Z,0.10
2022-12-15T12:51:40.099Z,0.10
2022-12-15T12:56:48.726Z,0.10
2022-12-15T13:01:54.338Z,0.10
2022-12-15T13:06:59.984Z,0.10
2022-12-15T13:12:20.933Z,0.10
2022-12-15T13:17:32.545Z,0.10
2022-12-15T13:22:39.937Z,0.10
2022-12-15T13:27:42.402Z,0.10
2022-12-15T13:32:46.548Z,0.10
2022-12-15T13:37:55.886Z,0.10
2022-12-15T13:43:19.036Z,0.00
2022-12-15T13:48:33.996Z,0.00
2022-12-15T13:53:49.735Z,-0.10
2022-12-15T13:59:00.653Z,-0.40
2022-12-15T14:04:15.590Z,-0.50
2022-12-15T14:09:22.516Z,-0.40
2022-12-15T14:14:28.974Z,-0.30
2022-12-15T14:19:45.294Z,-0.30
2022-12-15T14:24:49.839Z,-0.30
2022-12-15T14:30:22.324Z,-0.50
2022-12-15T14:35:25.957Z,-0.70
2022-12-15T14:40:29.284Z,-0.80
2022-12-15T14:45:32.604Z,-0.90
2022-12-15T14:50:35.408Z,-0.90
2022-12-15T14:55:40.466Z,-1.00
2022-12-15T15:00:53.894Z,-1.00
2022-12-15T15:06:17.571Z,-0.90
2022-12-15T15:11:35.528Z,-1.00
2022-12-15T15:16:37.620Z,-1.00
2022-12-15T15:21:39.379Z,-1.10
2022-12-15T15:26:41.239Z,-1.10
2022-12-15T15:31:43.194Z,-1.10
2022-12-15T15:36:44.989Z,-1.10
2022-12-15T15:41:46.732Z,-1.00
2022-12-15T15:46:51.135Z,-1.00
2022-12-15T15:51:55.810Z,-1.00
2022-12-15T15:56:57.654Z,-0.90
2022-12-15T16:02:00.583Z,-0.90
2022-12-15T16:07:03.766Z,-0.90
2022-12-15T16:12:05.968Z,-0.90
2022-12-15T16:17:09.478Z,-0.80
2022-12-15T16:22:16.855Z,-0.80
2022-12-15T16:27:18.610Z,-0.80
2022-12-15T16:32:20.344Z,-0.80
2022-12-15T16:37:27.362Z,-0.80
2022-12-15T16:42:29.186Z,-0.80
2022-12-15T16:47:32.127Z,-0.70
2022-12-15T16:52:34.250Z,-0.70
2022-12-15T16:57:35.959Z,-0.70
2022-12-15T17:02:38.612Z,-0.60
2022-12-15T17:07:40.948Z,-0.70
2022-12-15T17:12:43.220Z,-0.70
2022-12-15T17:17:45.878Z,-0.70
2022-12-15T17:22:51.530Z,-0.70
2022-12-15T17:27:56.133Z,-0.70
2022-12-15T17:32:58.185Z,-0.70
2022-12-15T17:38:00.650Z,-0.70
2022-12-15T17:43:02.394Z,-0.70
2022-12-15T17:48:04.321Z,-0.70
2022-12-15T17:53:07.102Z,-0.70
2022-12-15T17:58:21.313Z,-0.70
2022-12-15T18:03:24.292Z,-0.70
2022-12-15T18:08:27.788Z,-0.70
2022-12-15T18:13:35.281Z,-0.70
2022-12-15T18:18:37.432Z,-0.60
2022-12-15T18:23:39.393Z,-0.60
2022-12-15T18:28:41.584Z,-0.60
2022-12-15T18:33:44.530Z,-0.60
2022-12-15T18:38:46.297Z,-0.50
2022-12-15T18:43:48.042Z,-0.60
2022-12-15T18:48:50.163Z,-0.60
2022-12-15T18:53:52.082Z,-0.50
2022-12-15T18:58:54.031Z,-0.50
2022-12-15T19:03:55.914Z,-0.50
2022-12-15T19:08:57.998Z,-0.50
2022-12-15T19:14:01.893Z,-0.50
2022-12-15T19:19:22.766Z,-0.60
2022-12-15T19:24:48.690Z,-0.50
2022-12-15T19:29:51.708Z,-0.50
2022-12-15T19:34:54.263Z,-0.50
2022-12-15T19:39:59.077Z,-0.50
2022-12-15T19:45:02.520Z,-0.50
2022-12-15T19:50:05.314Z,-0.50
2022-12-15T19:55:13.590Z,-0.50
2022-12-15T20:00:22.242Z,-0.40
2022-12-15T20:05:25.915Z,-0.40
2022-12-15T20:10:32.222Z,-0.50
2022-12-15T20:15:35.354Z,-0.40
2022-12-15T20:20:38.541Z,-0.40
2022-12-15T20:25:42.573Z,-0.40
2022-12-15T20:30:46.610Z,-0.40
2022-12-15T20:35:50.598Z,-0.40
2022-12-15T20:40:54.628Z,-0.40
2022-12-15T20:46:01.127Z,-0.40
2022-12-15T20:51:07.533Z,-0.40
2022-12-15T20:56:11.968Z,-0.40
2022-12-15T21:01:20.627Z,-0.40
2022-12-15T21:06:24.170Z,-0.40
2022-12-15T21:11:28.511Z,-0.40
2022-12-15T21:16:32.247Z,-0.50
2022-12-15T21:21:36.728Z,-0.40
2022-12-15T21:26:38.539Z,-0.40
2022-12-15T21:31:40.626Z,-0.40
2022-12-15T21:36:45.038Z,-0.40
2022-12-15T21:41:46.783Z,-0.40
2022-12-15T21:46:48.578Z,-0.50
2022-12-15T21:52:00.738Z,-0.50
2022-12-15T21:57:03.251Z,-0.50
2022-12-15T22:02:24.514Z,-0.50
2022-12-15T22:07:26.295Z,-0.50
2022-12-15T22:12:28.031Z,-0.60
2022-12-15T22:17:29.796Z,-0.50
2022-12-15T22:22:31.956Z,-0.50
2022-12-15T22:27:34.515Z,-0.50
2022-12-15T22:32:36.464Z,-0.50
2022-12-15T22:37:38.212Z,-0.50
2022-12-15T22:42:43.853Z,-0.50
2022-12-15T22:47:47.684Z,-0.40
2022-12-15T22:52:50.691Z,-0.40
2022-12-15T22:58:01.181Z,-0.40
2022-12-15T23:03:03.785Z,-0.40
2022-12-15T23:08:05.585Z,-0.30
2022-12-15T23:13:07.424Z,-0.30
2022-12-15T23:18:09.257Z,-0.30
2022-12-15T23:23:11.074Z,-0.30
2022-12-15T23:28:13.952Z,-0.30
2022-12-15T23:33:15.659Z,-0.30
2022-12-15T23:38:17.875Z,-0.30
2022-12-15T23:43:20.397Z,-0.30
2022-12-15T23:48:22.333Z,-0.30
2022-12-15T23:53:24.059Z,-0.30
2022-12-15T23:58:25.772Z,-0.30
